^^
Your Local Weather - Clay, NY Station Historical Data
Daily Summary for March 16, 2017 Units:  Metric    English   Both
« Previous Day
Next Day »
Daily Weekly Monthly Yearly Custom
  High: Low: Average:
Temperature: -0.8 °C -8.4 °C -4.3 °C
Dew Point: -5.2 °C -10.1 °C -7.9 °C
Humidity: 89% 55% 77%
Wind Speed: 14.5km/h 0km/h 7.7km/h
Wind Gust: 27.4km/h - -
Wind- - WNW
Pressure: 1019.2 hPa 1010 hPa -
Precipitation: 2.79 mm    
Historical Graphs
 
 
Tabular Data for March 16, 2017
Time Temperature Dew Point Pressure Wind Wind Speed Wind Gust Humidity Rainfall Rate (Hourly) solar
00:02 -5.7 °C -7.2 °C 1010 hPa NW 8 km/h 8 km/h 89% 0 mm 0 W/m2
00:08 -5.8 °C -7.3 °C 1010 hPa NW 6.4 km/h 9.7 km/h 89% 0 mm 0 W/m2
00:14 -5.8 °C -7.3 °C 1010 hPa NW 6.4 km/h 16.1 km/h 89% 0 mm 0 W/m2
00:20 -5.9 °C -7.4 °C 1010 hPa NNW 8 km/h 14.5 km/h 89% 0 mm 0 W/m2
00:26 -5.9 °C -7.4 °C 1010 hPa NW 8 km/h 14.5 km/h 89% 0 mm 0 W/m2
00:32 -5.9 °C -7.4 °C 1010 hPa WNW 8 km/h 8 km/h 89% 0 mm 0 W/m2
00:38 -5.9 °C -7.4 °C 1010 hPa NW 6.4 km/h 8 km/h 89% 0 mm 0 W/m2
00:44 -5.9 °C -7.4 °C 1010 hPa WNW 6.4 km/h 9.7 km/h 89% 0 mm 0 W/m2
00:50 -5.9 °C -7.4 °C 1010 hPa WNW 8 km/h 8 km/h 89% 0 mm 0 W/m2
00:56 -5.9 °C -7.4 °C 1010 hPa WNW 8 km/h 9.7 km/h 89% 0 mm 0 W/m2
01:02 -5.9 °C -7.4 °C 1010 hPa NNW 8 km/h 8 km/h 89% 0 mm 0 W/m2
01:08 -5.9 °C -7.4 °C 1010 hPa WNW 6.4 km/h 8 km/h 89% 0 mm 0 W/m2
01:14 -5.9 °C -7.4 °C 1010 hPa WNW 6.4 km/h 8 km/h 89% 0 mm 0 W/m2
01:20 -6 °C -7.5 °C 1010 hPa WNW 6.4 km/h 6.4 km/h 89% 0 mm 0 W/m2
01:26 -6.1 °C -7.6 °C 1010.4 hPa NW 6.4 km/h 6.4 km/h 89% 0 mm 0 W/m2
01:32 -6.1 °C -7.6 °C 1010.4 hPa NW 4.8 km/h 8 km/h 89% 0 mm 0 W/m2
01:38 -6.1 °C -7.6 °C 1010.4 hPa NW 4.8 km/h 11.3 km/h 89% 0 mm 0 W/m2
01:44 -6.1 °C -7.6 °C 1010.4 hPa WNW 6.4 km/h 12.9 km/h 89% 0 mm 0 W/m2
01:50 -6.2 °C -7.7 °C 1010.7 hPa NW 8 km/h 8 km/h 89% 0 mm 0 W/m2
01:56 -6.3 °C -7.9 °C 1010.7 hPa NW 9.7 km/h 11.3 km/h 88% 0 mm 0 W/m2
02:02 -6.3 °C -7.8 °C 1010.7 hPa NW 8 km/h 9.7 km/h 89% 0 mm 0 W/m2
02:08 -6.4 °C -8.1 °C 1010.7 hPa NW 8 km/h 19.3 km/h 88% 0 mm 0 W/m2
02:14 -6.6 °C -8.2 °C 1010.7 hPa West 11.3 km/h 14.5 km/h 88% 0 mm 0 W/m2
02:20 -6.7 °C -8.3 °C 1011.1 hPa NW 11.3 km/h 11.3 km/h 88% 0 mm 0 W/m2
02:26 -6.7 °C -8.2 °C 1011.1 hPa NW 8 km/h 11.3 km/h 89% 0 mm 0 W/m2
02:32 -6.7 °C -8.2 °C 1011.1 hPa NW 6.4 km/h 8 km/h 89% 0 mm 0 W/m2
02:38 -6.7 °C -8.2 °C 1011.1 hPa WNW 6.4 km/h 11.3 km/h 89% 0 mm 0 W/m2
02:44 -6.7 °C -8.2 °C 1011.1 hPa NW 6.4 km/h 9.7 km/h 89% 0 mm 0 W/m2
02:50 -6.7 °C -8.2 °C 1011.1 hPa WNW 6.4 km/h 9.7 km/h 89% 0 mm 0 W/m2
02:56 -6.7 °C -8.2 °C 1011.4 hPa WNW 6.4 km/h 9.7 km/h 89% 0 mm 0 W/m2
03:02 -6.7 °C -8.2 °C 1011.4 hPa NW 4.8 km/h 6.4 km/h 89% 0 mm 0 W/m2
03:08 -6.8 °C -8.3 °C 1011.4 hPa NW 4.8 km/h 6.4 km/h 89% 0 mm 0 W/m2
03:14 -6.8 °C -8.3 °C 1011.4 hPa NW 3.2 km/h 3.2 km/h 89% 0 mm 0 W/m2
03:20 -6.9 °C -8.4 °C 1011.4 hPa West 3.2 km/h 3.2 km/h 89% 0 mm 0 W/m2
03:26 -6.9 °C -8.4 °C 1011.4 hPa WNW 4.8 km/h 8 km/h 89% 0 mm 0 W/m2
03:32 -6.9 °C -8.4 °C 1011.4 hPa WNW 6.4 km/h 8 km/h 89% 0 mm 0 W/m2
03:38 -6.9 °C -8.4 °C 1011.4 hPa WNW 6.4 km/h 9.7 km/h 89% 0 mm 0 W/m2
03:44 -7 °C -8.5 °C 1011.4 hPa WNW 6.4 km/h 9.7 km/h 89% 0 mm 0 W/m2
03:50 -7.1 °C -8.6 °C 1011.4 hPa NW 6.4 km/h 14.5 km/h 89% 0 mm 0 W/m2
03:56 -7.2 °C -8.7 °C 1011.4 hPa WNW 8 km/h 14.5 km/h 89% 0 mm 0 W/m2
04:02 -7.2 °C -8.9 °C 1011.4 hPa WNW 6.4 km/h 8 km/h 88% 0 mm 0 W/m2
04:08 -7.2 °C -8.9 °C 1011.4 hPa WNW 4.8 km/h 8 km/h 88% 0 mm 0 W/m2
04:14 -7.4 °C -9.1 °C 1011.4 hPa WNW 4.8 km/h 4.8 km/h 88% 0 mm 0 W/m2
04:20 -7.5 °C -9.2 °C 1011.4 hPa NW 3.2 km/h 3.2 km/h 88% 0 mm 0 W/m2
04:26 -7.7 °C -9.3 °C 1011.7 hPa NW 1.6 km/h 3.2 km/h 88% 0 mm 0 W/m2
04:32 -7.7 °C -9.4 °C 1011.7 hPa NW 1.6 km/h 3.2 km/h 88% 0 mm 0 W/m2
04:38 -7.9 °C -9.6 °C 1011.7 hPa WNW 3.2 km/h 4.8 km/h 88% 0 mm 0 W/m2
04:44 -7.9 °C -9.6 °C 1011.7 hPa NNW 3.2 km/h 6.4 km/h 88% 0 mm 0 W/m2
04:50 -7.8 °C -9.5 °C 1011.7 hPa WNW 3.2 km/h 3.2 km/h 88% 0 mm 0 W/m2
04:56 -7.7 °C -9.4 °C 1011.7 hPa NNW 4.8 km/h 4.8 km/h 88% 0 mm 0 W/m2
05:03 -7.6 °C -9.3 °C 1011.7 hPa NW 3.2 km/h 4.8 km/h 88% 0 mm 0 W/m2
05:08 -7.6 °C -9.2 °C 1011.7 hPa NW 3.2 km/h 4.8 km/h 88% 0 mm 0 W/m2
05:14 -7.6 °C -9.2 °C 1012.1 hPa NW 3.2 km/h 8 km/h 88% 0 mm 0 W/m2
05:20 -7.6 °C -9.2 °C 1012.1 hPa WNW 4.8 km/h 6.4 km/h 88% 0 mm 0 W/m2
05:26 -7.4 °C -9.1 °C 1012.1 hPa WNW 4.8 km/h 6.4 km/h 88% 0 mm 0 W/m2
05:32 -7.6 °C -9.2 °C 1012.1 hPa WNW 3.2 km/h 8 km/h 88% 0 mm 0 W/m2
05:38 -7.6 °C -9.3 °C 1012.4 hPa NW 4.8 km/h 8 km/h 88% 0 mm 0 W/m2
05:44 -7.6 °C -9.3 °C 1012.4 hPa NW 4.8 km/h 4.8 km/h 88% 0 mm 0 W/m2
05:50 -7.7 °C -9.4 °C 1012.4 hPa WNW 4.8 km/h 4.8 km/h 88% 0 mm 0 W/m2
05:56 -7.7 °C -9.4 °C 1012.4 hPa NW 4.8 km/h 11.3 km/h 88% 0 mm 0 W/m2
06:02 -7.7 °C -9.4 °C 1012.4 hPa NW 4.8 km/h 4.8 km/h 88% 0 mm 0 W/m2
06:08 -7.8 °C -9.5 °C 1012.8 hPa WNW 3.2 km/h 8 km/h 88% 0 mm 0 W/m2
06:14 -7.9 °C -9.6 °C 1012.4 hPa NW 3.2 km/h 8 km/h 88% 0 mm 0 W/m2
06:20 -7.9 °C -9.6 °C 1012.8 hPa NNW 3.2 km/h 6.4 km/h 88% 0 mm 0 W/m2
06:26 -7.9 °C -9.6 °C 1012.8 hPa WNW 3.2 km/h 6.4 km/h 88% 0 mm 0 W/m2
06:32 -8 °C -9.6 °C 1012.8 hPa WNW 3.2 km/h 6.4 km/h 88% 0 mm 0 W/m2
06:38 -7.9 °C -9.6 °C 1012.8 hPa NW 3.2 km/h 6.4 km/h 88% 0 mm 0 W/m2
06:44 -7.9 °C -9.6 °C 1012.8 hPa WNW 3.2 km/h 3.2 km/h 88% 0 mm 0 W/m2
06:50 -8 °C -9.8 °C 1013.1 hPa WNW 3.2 km/h 3.2 km/h 87% 0 mm 0 W/m2
06:56 -8.1 °C -9.7 °C 1013.1 hPa WNW 1.6 km/h 3.2 km/h 88% 0 mm 0 W/m2
07:02 -8.2 °C -9.8 °C 1013.1 hPa NW 3.2 km/h 3.2 km/h 88% 0 mm 0 W/m2
07:08 -8.2 °C -9.8 °C 1013.4 hPa NW 1.6 km/h 3.2 km/h 88% 0 mm 0 W/m2
07:14 -8.3 °C -9.9 °C 1013.4 hPa NW 1.6 km/h 3.2 km/h 88% 0 mm 0 W/m2
07:20 -8.3 °C -9.9 °C 1013.4 hPa NW 1.6 km/h 1.6 km/h 88% 0 mm 5 W/m2
07:26 -8.3 °C -10.1 °C 1013.4 hPa WNW 1.6 km/h 4.8 km/h 87% 0 mm 9 W/m2
07:32 -8.3 °C -9.9 °C 1013.4 hPa WNW 1.6 km/h 3.2 km/h 88% 0 mm 19 W/m2
07:38 -8.4 °C -10 °C 1013.4 hPa WNW 1.6 km/h 3.2 km/h 88% 0 mm 23 W/m2
07:44 -8.4 °C -10 °C 1013.4 hPa Calm   1.6 km/h 88% 0 mm 30 W/m2
07:50 -8.4 °C -10 °C 1013.4 hPa Calm     88% 0 mm 47 W/m2
07:56 -8.3 °C -9.9 °C 1013.4 hPa WNW 1.6 km/h 1.6 km/h 88% 0 mm 28 W/m2
08:02 -8.2 °C -9.8 °C 1013.8 hPa NW 1.6 km/h 4.8 km/h 88% 0 mm 63 W/m2
08:08 -8.1 °C -9.7 °C 1013.8 hPa NW 3.2 km/h 4.8 km/h 88% 0 mm 65 W/m2
08:14 -7.8 °C -9.5 °C 1013.8 hPa WNW 3.2 km/h 4.8 km/h 88% 0 mm 44 W/m2
08:20 -7.7 °C -9.5 °C 1013.8 hPa WNW 4.8 km/h 6.4 km/h 87% 0 mm 127 W/m2
08:26 -7.5 °C -9.3 °C 1013.8 hPa WNW 4.8 km/h 9.7 km/h 87% 0 mm 174 W/m2
08:32 -7.2 °C -9 °C 1013.8 hPa NW 4.8 km/h 9.7 km/h 87% 0 mm 174 W/m2
08:38 -7 °C -8.8 °C 1013.8 hPa North 6.4 km/h 9.7 km/h 87% 0 mm 264 W/m2
08:44 -6.8 °C -8.6 °C 1013.8 hPa NNW 4.8 km/h 6.4 km/h 87% 0 mm 146 W/m2
08:50 -6.6 °C -8.4 °C 1013.8 hPa NW 4.8 km/h 6.4 km/h 87% 0 mm 149 W/m2
08:56 -6.5 °C -8.3 °C 1013.8 hPa West 6.4 km/h 6.4 km/h 87% 0 mm 148 W/m2
09:02 -6.4 °C -8.3 °C 1013.8 hPa West 4.8 km/h 11.3 km/h 87% 0 mm 88 W/m2
09:08 -6.4 °C -8.2 °C 1014.1 hPa WNW 4.8 km/h 11.3 km/h 87% 0 mm 309 W/m2
09:14 -6.2 °C -8.1 °C 1014.1 hPa WNW 4.8 km/h 8 km/h 87% 0 mm 302 W/m2
09:20 -6 °C -7.8 °C 1014.1 hPa NNW 6.4 km/h 6.4 km/h 87% 0 mm 162 W/m2
09:26 -5.9 °C -7.8 °C 1014.1 hPa WNW 9.7 km/h 9.7 km/h 87% 0 mm 338 W/m2
09:32 -5.7 °C -7.6 °C 1014.1 hPa WNW 8 km/h 9.7 km/h 87% 0 mm 227 W/m2
09:38 -5.6 °C -7.4 °C 1014.1 hPa NW 8 km/h 9.7 km/h 87% 0 mm 301 W/m2
09:44 -5.4 °C -7.3 °C 1014.1 hPa WNW 8 km/h 11.3 km/h 87% 0 mm 278 W/m2
09:50 -5.4 °C -7.2 °C 1014.1 hPa NW 6.4 km/h 6.4 km/h 87% 0 mm 251 W/m2
09:56 -5.3 °C -7.2 °C 1014.1 hPa NNW 8 km/h 14.5 km/h 87% 0 mm 239 W/m2
10:02 -5.4 °C -7.2 °C 1014.1 hPa NNW 9.7 km/h 14.5 km/h 87% 0 mm 279 W/m2
10:08 -5.4 °C -7.2 °C 1014.1 hPa WNW 8 km/h 14.5 km/h 87% 0 mm 269 W/m2
10:14 -5.3 °C -7.3 °C 1014.4 hPa WNW 9.7 km/h 9.7 km/h 86% 0 mm 499 W/m2
10:20 -5.2 °C -7 °C 1014.4 hPa NW 9.7 km/h 16.1 km/h 87% 0 mm 487 W/m2
10:26 -5.2 °C -7 °C 1014.4 hPa WNW 11.3 km/h 16.1 km/h 87% 0 mm 506 W/m2
10:32 -5.1 °C -6.9 °C 1014.4 hPa WNW 11.3 km/h 11.3 km/h 87% 0 mm 682 W/m2
10:38 -4.8 °C -6.7 °C 1014.4 hPa WNW 11.3 km/h 14.5 km/h 87% 0 mm 346 W/m2
10:44 -4.9 °C -6.7 °C 1014.4 hPa WNW 11.3 km/h 16.1 km/h 87% 0 mm 357 W/m2
10:50 -4.8 °C -6.7 °C 1014.4 hPa NW 11.3 km/h 11.3 km/h 87% 0 mm 659 W/m2
10:56 -4.7 °C -6.6 °C 1014.4 hPa WNW 11.3 km/h 22.5 km/h 87% 0 mm 649 W/m2
11:02 -4.8 °C -6.8 °C 1014.4 hPa WNW 12.9 km/h 12.9 km/h 86% 0 mm 427 W/m2
11:08 -4.6 °C -6.4 °C 1014.8 hPa WNW 11.3 km/h 12.9 km/h 87% 0 mm 766 W/m2
11:14 -4.4 °C -6.4 °C 1014.4 hPa NW 11.3 km/h 16.1 km/h 86% 0 mm 745 W/m2
11:20 -4.3 °C -6.3 °C 1014.8 hPa WNW 11.3 km/h 16.1 km/h 86% 0 mm 666 W/m2
11:26 -4.3 °C -6.3 °C 1014.8 hPa WNW 11.3 km/h 16.1 km/h 86% 0 mm 582 W/m2
11:32 -4.4 °C -6.4 °C 1014.8 hPa West 11.3 km/h 16.1 km/h 86% 0 mm 533 W/m2
11:38 -4.4 °C -6.6 °C 1014.8 hPa WNW 12.9 km/h 16.1 km/h 85% 0 mm 548 W/m2
11:44 -4.3 °C -6.5 °C 1014.8 hPa NW 9.7 km/h 11.3 km/h 85% 0 mm 441 W/m2
11:50 -4.2 °C -6.4 °C 1014.8 hPa West 9.7 km/h 11.3 km/h 85% 0 mm 462 W/m2
11:56 -4.4 °C -6.6 °C 1014.8 hPa WNW 12.9 km/h 24.1 km/h 85% 0 mm 462 W/m2
12:02 -4.4 °C -6.6 °C 1014.8 hPa WNW 14.5 km/h 20.9 km/h 85% 0 mm 543 W/m2
12:08 -4.2 °C -6.4 °C 1014.8 hPa NW 11.3 km/h 20.9 km/h 85% 0 mm 531 W/m2
12:14 -4 °C -6.2 °C 1014.8 hPa WNW 9.7 km/h 12.9 km/h 85% 0 mm 536 W/m2
12:20 -3.9 °C -6.1 °C 1014.8 hPa WNW 11.3 km/h 11.3 km/h 85% 0 mm 570 W/m2
12:26 -3.7 °C -6.1 °C 1014.8 hPa WNW 11.3 km/h 27.4 km/h 84% 0 mm 650 W/m2
12:32 -3.7 °C -6.1 °C 1014.8 hPa West 12.9 km/h 12.9 km/h 84% 0 mm 633 W/m2
12:38 -3.6 °C -5.9 °C 1014.8 hPa NW 12.9 km/h 14.5 km/h 84% 0 mm 635 W/m2
12:44 -3.6 °C -5.9 °C 1014.8 hPa NW 12.9 km/h 14.5 km/h 84% 0 mm 624 W/m2
12:50 -3.4 °C -5.7 °C 1014.8 hPa WNW 12.9 km/h 12.9 km/h 84% 1.27 mm 610 W/m2
12:56 -3.4 °C -5.9 °C 1014.8 hPa West 9.7 km/h 17.7 km/h 83% 1.27 mm 494 W/m2
13:02 -3.4 °C -5.9 °C 1014.8 hPa NW 11.3 km/h 11.3 km/h 83% 2.29 mm 404 W/m2
13:08 -3.6 °C -6.2 °C 1014.8 hPa West 12.9 km/h 16.1 km/h 82% 1.27 mm 594 W/m2
13:14 -3.4 °C -5.7 °C 1014.8 hPa WNW 12.9 km/h 14.5 km/h 84% 0 mm 749 W/m2
13:20 -3.3 °C -5.6 °C 1014.8 hPa West 12.9 km/h 12.9 km/h 84% 0 mm 643 W/m2
13:26 -3.3 °C -5.7 °C 1014.8 hPa NW 14.5 km/h 16.1 km/h 84% 0 mm 427 W/m2
13:32 -3.2 °C -5.6 °C 1014.8 hPa WNW 12.9 km/h 19.3 km/h 84% 1.02 mm 513 W/m2
13:38 -2.7 °C -5.3 °C 1014.8 hPa WNW 12.9 km/h 19.3 km/h 82% 1.02 mm 596 W/m2
13:44 -2.7 °C -5.7 °C 1014.8 hPa WNW 12.9 km/h 17.7 km/h 80% 1.02 mm 338 W/m2
13:50 -3.2 °C -5.8 °C 1014.8 hPa WNW 12.9 km/h 20.9 km/h 82% 0 mm 329 W/m2
13:56 -3.2 °C -5.8 °C 1014.8 hPa West 14.5 km/h 20.9 km/h 82% 0 mm 355 W/m2
14:02 -3.1 °C -5.8 °C 1015.1 hPa WNW 12.9 km/h 14.5 km/h 81% 0 mm 313 W/m2
14:08 -3.1 °C -5.8 °C 1014.8 hPa WNW 14.5 km/h 27.4 km/h 81% 0 mm 478 W/m2
14:14 -2.7 °C -5.7 °C 1015.1 hPa WNW 14.5 km/h 14.5 km/h 80% 0 mm 673 W/m2
14:20 -2.3 °C -5.2 °C 1014.8 hPa NW 11.3 km/h 11.3 km/h 81% 0 mm 345 W/m2
14:26 -2.1 °C -5.9 °C 1015.1 hPa WNW 11.3 km/h 22.5 km/h 75% 0 mm 919 W/m2
14:32 -2 °C -6.4 °C 1014.8 hPa NW 12.9 km/h 12.9 km/h 72% 0 mm 889 W/m2
14:38 -2.2 °C -6.1 °C 1014.8 hPa WNW 12.9 km/h 16.1 km/h 75% 0 mm 343 W/m2
14:44 -2.2 °C -6.3 °C 1015.1 hPa NW 12.9 km/h 14.5 km/h 73% 0 mm 322 W/m2
14:50 -1.9 °C -6.3 °C 1014.8 hPa NW 12.9 km/h 12.9 km/h 72% 0 mm 710 W/m2
14:56 -1.6 °C -6.6 °C 1014.8 hPa West 9.7 km/h 16.1 km/h 69% 0 mm 515 W/m2
15:02 -1.6 °C -6.7 °C 1014.8 hPa WNW 12.9 km/h 17.7 km/h 68% 0 mm 635 W/m2
15:08 -1.6 °C -6.7 °C 1014.8 hPa West 12.9 km/h 17.7 km/h 68% 0 mm 515 W/m2
15:14 -1.8 °C -6.6 °C 1014.8 hPa WNW 12.9 km/h 19.3 km/h 70% 1.02 mm 533 W/m2
15:20 -1.7 °C -6.1 °C 1014.8 hPa WNW 12.9 km/h 12.9 km/h 72% 1.02 mm 404 W/m2
15:26 -1.9 °C -6.3 °C 1015.1 hPa WNW 12.9 km/h 14.5 km/h 72% 1.02 mm 381 W/m2
15:32 -1.8 °C -6.4 °C 1015.1 hPa WNW 12.9 km/h 12.9 km/h 71% 0 mm 350 W/m2
15:38 -1.8 °C -6.2 °C 1015.5 hPa NW 12.9 km/h 19.3 km/h 72% 0 mm 281 W/m2
15:44 -1.7 °C -6.2 °C 1015.1 hPa NW 12.9 km/h 17.7 km/h 71% 0 mm 308 W/m2
15:50 -1.6 °C -5.8 °C 1015.5 hPa WNW 11.3 km/h 11.3 km/h 73% 0 mm 211 W/m2
15:56 -1.6 °C -6.1 °C 1015.5 hPa West 11.3 km/h 16.1 km/h 71% 0 mm 265 W/m2
16:02 -1.4 °C -6.2 °C 1015.5 hPa WNW 11.3 km/h 19.3 km/h 70% 0 mm 236 W/m2
16:08 -1.4 °C -6.2 °C 1015.5 hPa WNW 11.3 km/h 19.3 km/h 70% 0 mm 218 W/m2
16:14 -1.3 °C -5.9 °C 1015.1 hPa West 11.3 km/h 11.3 km/h 71% 0 mm 211 W/m2
16:20 -1.3 °C -5.9 °C 1015.5 hPa WNW 9.7 km/h 9.7 km/h 71% 0 mm 148 W/m2
16:26 -1.7 °C -6.7 °C 1015.5 hPa West 11.3 km/h 20.9 km/h 69% 0 mm 114 W/m2
16:32 -1.6 °C -6.6 °C 1015.5 hPa West 12.9 km/h 16.1 km/h 69% 0 mm 171 W/m2
16:38 -1.6 °C -6.5 °C 1015.5 hPa West 11.3 km/h 20.9 km/h 69% 0 mm 130 W/m2
16:44 -1.6 °C -6.9 °C 1015.5 hPa WNW 12.9 km/h 19.3 km/h 67% 0 mm 121 W/m2
16:50 -1.2 °C -6.1 °C 1015.5 hPa WNW 12.9 km/h 12.9 km/h 69% 0 mm 272 W/m2
16:56 -1.1 °C -6.3 °C 1015.5 hPa NW 11.3 km/h 12.9 km/h 68% 0 mm 181 W/m2
17:02 -1.1 °C -6.8 °C 1015.5 hPa WNW 11.3 km/h 11.3 km/h 65% 0 mm 171 W/m2
17:08 -1.2 °C -6.7 °C 1015.5 hPa WNW 12.9 km/h 14.5 km/h 66% 0 mm 151 W/m2
17:14 -1.1 °C -6.6 °C 1015.5 hPa WNW 11.3 km/h 16.1 km/h 66% 0 mm 206 W/m2
17:20 -0.8 °C -7 °C 1015.5 hPa WNW 12.9 km/h 12.9 km/h 63% 0 mm 181 W/m2
17:26 -0.8 °C -6.9 °C 1015.5 hPa WNW 12.9 km/h 17.7 km/h 63% 0 mm 181 W/m2
17:32 -0.9 °C -7.5 °C 1015.5 hPa WNW 11.3 km/h 12.9 km/h 61% 0 mm 185 W/m2
17:38 -1 °C -7.4 °C 1015.5 hPa West 11.3 km/h 12.9 km/h 62% 0 mm 186 W/m2
17:44 -0.9 °C -6.9 °C 1015.8 hPa NW 11.3 km/h 12.9 km/h 64% 0 mm 128 W/m2
17:50 -0.9 °C -6.8 °C 1015.8 hPa NW 11.3 km/h 11.3 km/h 64% 0 mm 232 W/m2
17:56 -0.9 °C -6.8 °C 1015.8 hPa West 9.7 km/h 16.1 km/h 64% 0 mm 81 W/m2
18:02 -0.9 °C -6.9 °C 1015.8 hPa WNW 11.3 km/h 14.5 km/h 64% 0 mm 63 W/m2
18:08 -0.9 °C -7.1 °C 1015.8 hPa WNW 11.3 km/h 20.9 km/h 63% 0 mm 63 W/m2
18:14 -0.9 °C -7.3 °C 1015.8 hPa WNW 12.9 km/h 17.7 km/h 62% 0 mm 47 W/m2
18:20 -0.9 °C -7.1 °C 1015.8 hPa NW 11.3 km/h 11.3 km/h 63% 0 mm 42 W/m2
18:26 -0.9 °C -7.1 °C 1015.8 hPa NW 9.7 km/h 11.3 km/h 63% 0 mm 40 W/m2
18:32 -0.9 °C -7.1 °C 1015.8 hPa WNW 9.7 km/h 9.7 km/h 63% 0 mm 25 W/m2
18:38 -0.9 °C -7.1 °C 1016.1 hPa WNW 8 km/h 11.3 km/h 63% 0 mm 21 W/m2
18:44 -0.9 °C -7.1 °C 1016.1 hPa WNW 6.4 km/h 17.7 km/h 63% 0 mm 21 W/m2
18:50 -0.9 °C -7.1 °C 1016.1 hPa WNW 6.4 km/h 8 km/h 63% 0 mm 16 W/m2
18:56 -0.9 °C -7.1 °C 1016.5 hPa WNW 8 km/h 8 km/h 63% 0 mm 12 W/m2
19:02 -0.9 °C -7.3 °C 1016.5 hPa WNW 8 km/h 12.9 km/h 62% 0 mm 9 W/m2
19:08 -0.9 °C -7.3 °C 1016.5 hPa West 8 km/h 12.9 km/h 62% 0 mm 5 W/m2
19:14 -0.9 °C -7.3 °C 1016.5 hPa WNW 8 km/h 9.7 km/h 62% 0 mm 0 W/m2
19:20 -1 °C -7.8 °C 1016.5 hPa WNW 8 km/h 12.9 km/h 60% 0 mm 0 W/m2
19:26 -1.1 °C -8.1 °C 1016.5 hPa West 8 km/h 12.9 km/h 59% 0 mm 0 W/m2
19:32 -1 °C -8.4 °C 1016.8 hPa West 8 km/h 9.7 km/h 57% 0 mm 0 W/m2
19:38 -1.1 °C -8.6 °C 1016.8 hPa WNW 6.4 km/h 9.7 km/h 57% 0 mm 0 W/m2
19:44 -1.2 °C -8.6 °C 1016.8 hPa WNW 6.4 km/h 9.7 km/h 57% 0 mm 0 W/m2
19:50 -1.3 °C -8.5 °C 1016.8 hPa WNW 4.8 km/h 4.8 km/h 58% 0 mm 0 W/m2
19:56 -1.4 °C -8.9 °C 1016.8 hPa WNW 4.8 km/h 8 km/h 57% 0 mm 0 W/m2
20:02 -1.6 °C -8.8 °C 1016.8 hPa WNW 3.2 km/h 9.7 km/h 58% 0 mm 0 W/m2
20:08 -1.6 °C -8.8 °C 1016.8 hPa WNW 3.2 km/h 9.7 km/h 58% 0 mm 0 W/m2
20:14 -1.5 °C -8.9 °C 1016.8 hPa WNW 4.8 km/h 9.7 km/h 57% 0 mm 0 W/m2
20:20 -1.5 °C -9.2 °C 1017.2 hPa WNW 4.8 km/h 9.7 km/h 56% 0 mm 0 W/m2
20:26 -1.6 °C -9.3 °C 1017.5 hPa West 4.8 km/h 9.7 km/h 56% 0 mm 0 W/m2
20:32 -1.6 °C -9.5 °C 1017.5 hPa NW 4.8 km/h 6.4 km/h 55% 0 mm 0 W/m2
20:38 -1.6 °C -9.4 °C 1017.5 hPa WNW 4.8 km/h 12.9 km/h 55% 0 mm 0 W/m2
20:44 -1.7 °C -9.6 °C 1017.5 hPa WNW 4.8 km/h 4.8 km/h 55% 0 mm 0 W/m2
20:50 -1.7 °C -9.6 °C 1017.5 hPa WNW 4.8 km/h 4.8 km/h 55% 0 mm 0 W/m2
20:56 -1.7 °C -9.6 °C 1017.5 hPa West 4.8 km/h 9.7 km/h 55% 0 mm 0 W/m2
21:02 -1.7 °C -9.6 °C 1017.8 hPa NW 4.8 km/h 6.4 km/h 55% 0 mm 0 W/m2
21:08 -1.7 °C -9.3 °C 1017.5 hPa WNW 4.8 km/h 6.4 km/h 56% 0 mm 0 W/m2
21:14 -1.7 °C -9.3 °C 1017.8 hPa WNW 4.8 km/h 4.8 km/h 56% 0 mm 0 W/m2
21:20 -1.6 °C -9.5 °C 1017.8 hPa WNW 6.4 km/h 6.4 km/h 55% 0 mm 0 W/m2
21:26 -1.6 °C -9.5 °C 1017.8 hPa NW 8 km/h 12.9 km/h 55% 0 mm 0 W/m2
21:32 -1.5 °C -9.4 °C 1017.8 hPa WNW 8 km/h 9.7 km/h 55% 0 mm 0 W/m2
21:38 -1.6 °C -9.3 °C 1018.2 hPa WNW 6.4 km/h 9.7 km/h 56% 0 mm 0 W/m2
21:44 -1.8 °C -9.4 °C 1018.2 hPa NW 4.8 km/h 8 km/h 56% 0 mm 0 W/m2
21:50 -2 °C -9.4 °C 1018.2 hPa WNW 3.2 km/h 4.8 km/h 57% 0 mm 0 W/m2
21:56 -2 °C -9.2 °C 1018.2 hPa WNW 4.8 km/h 9.7 km/h 58% 0 mm 0 W/m2
22:02 -1.9 °C -9.1 °C 1018.5 hPa WNW 6.4 km/h 12.9 km/h 58% 0 mm 0 W/m2
22:08 -1.9 °C -9.1 °C 1018.5 hPa WNW 4.8 km/h 12.9 km/h 58% 0 mm 0 W/m2
22:14 -1.9 °C -9.1 °C 1018.5 hPa WNW 6.4 km/h 9.7 km/h 58% 0 mm 0 W/m2
22:20 -1.9 °C -9.1 °C 1018.5 hPa WNW 6.4 km/h 6.4 km/h 58% 0 mm 0 W/m2
22:26 -1.8 °C -9 °C 1018.5 hPa NW 8 km/h 8 km/h 58% 0 mm 0 W/m2
22:32 -1.9 °C -9.1 °C 1018.5 hPa WNW 6.4 km/h 6.4 km/h 58% 0 mm 0 W/m2
22:38 -1.9 °C -9.1 °C 1018.5 hPa WNW 6.4 km/h 8 km/h 58% 0 mm 0 W/m2
22:44 -2.1 °C -9 °C 1018.5 hPa WNW 4.8 km/h 8 km/h 59% 0 mm 0 W/m2
22:50 -2.2 °C -9.2 °C 1018.5 hPa WNW 3.2 km/h 3.2 km/h 59% 0 mm 0 W/m2
22:56 -2.3 °C -9.3 °C 1018.5 hPa WNW 4.8 km/h 4.8 km/h 59% 0 mm 0 W/m2
23:02 -2.3 °C -9.3 °C 1018.8 hPa West 4.8 km/h 9.7 km/h 59% 0 mm 0 W/m2
23:08 -2.2 °C -9.2 °C 1018.8 hPa WNW 4.8 km/h 11.3 km/h 59% 0 mm 0 W/m2
23:14 -2.3 °C -9.1 °C 1018.8 hPa West 4.8 km/h 4.8 km/h 60% 0 mm 0 W/m2
23:22 -2.4 °C -9.1 °C 1018.8 hPa WNW 4.8 km/h 8 km/h 60% 0 mm 0 W/m2
23:28 -2.3 °C -9 °C 1018.8 hPa WNW 6.4 km/h 16.1 km/h 60% 0 mm 0 W/m2
23:34 -2.4 °C -9.1 °C 1018.8 hPa WNW 4.8 km/h 4.8 km/h 60% 0 mm 0 W/m2
23:40 -2.6 °C -9.1 °C 1018.8 hPa WNW 3.2 km/h 8 km/h 61% 0 mm 0 W/m2
23:46 -2.6 °C -9.1 °C 1018.8 hPa NW 3.2 km/h 8 km/h 61% 0 mm 0 W/m2
23:52 -2.6 °C -9.1 °C 1019.2 hPa WNW 3.2 km/h 3.2 km/h 61% 0 mm 0 W/m2
23:58 -2.8 °C -9.1 °C 1019.2 hPa WNW 3.2 km/h 4.8 km/h 62% 0 mm 0 W/m2
Country Meadow, Clay, NY, USA
Compliments of Weather Underground - 2 mb